sensor_id;sensor_type;location;lat;lon;timestamp;P1;durP1;ratioP1;P2;durP2;ratioP2
44508;SDS011;30214;52.246;14.408;2023-01-30T00:01:01;16.52;;;10.93;;
44508;SDS011;30214;52.246;14.408;2023-01-30T00:03:30;20.55;;;10.82;;
44508;SDS011;30214;52.246;14.408;2023-01-30T00:05:58;17.17;;;10.90;;
44508;SDS011;30214;52.246;14.408;2023-01-30T00:08:25;19.45;;;10.90;;
44508;SDS011;30214;52.246;14.408;2023-01-30T00:10:52;18.33;;;10.60;;
44508;SDS011;30214;52.246;14.408;2023-01-30T00:13:19;15.60;;;10.38;;
44508;SDS011;30214;52.246;14.408;2023-01-30T00:15:48;17.80;;;11.60;;
44508;SDS011;30214;52.246;14.408;2023-01-30T00:18:15;16.42;;;10.15;;
44508;SDS011;30214;52.246;14.408;2023-01-30T00:20:42;15.90;;;10.40;;
44508;SDS011;30214;52.246;14.408;2023-01-30T00:23:09;17.70;;;10.57;;
44508;SDS011;30214;52.246;14.408;2023-01-30T00:25:36;18.83;;;10.48;;
44508;SDS011;30214;52.246;14.408;2023-01-30T00:28:03;17.92;;;11.57;;
44508;SDS011;30214;52.246;14.408;2023-01-30T00:30:30;17.38;;;11.38;;
44508;SDS011;30214;52.246;14.408;2023-01-30T00:32:58;17.73;;;11.00;;
44508;SDS011;30214;52.246;14.408;2023-01-30T00:35:25;17.00;;;10.85;;
44508;SDS011;30214;52.246;14.408;2023-01-30T00:37:56;16.50;;;11.35;;
44508;SDS011;30214;52.246;14.408;2023-01-30T00:40:25;20.25;;;11.35;;
44508;SDS011;30214;52.246;14.408;2023-01-30T00:42:53;20.23;;;11.85;;
44508;SDS011;30214;52.246;14.408;2023-01-30T00:45:39;22.10;;;12.45;;
44508;SDS011;30214;52.246;14.408;2023-01-30T00:48:27;17.85;;;11.90;;
44508;SDS011;30214;52.246;14.408;2023-01-30T00:50:55;18.00;;;11.50;;
44508;SDS011;30214;52.246;14.408;2023-01-30T00:53:22;21.48;;;11.70;;
44508;SDS011;30214;52.246;14.408;2023-01-30T00:55:50;16.77;;;10.95;;
44508;SDS011;30214;52.246;14.408;2023-01-30T00:58:18;16.27;;;10.77;;
44508;SDS011;30214;52.246;14.408;2023-01-30T01:00:46;16.80;;;11.05;;
44508;SDS011;30214;52.246;14.408;2023-01-30T01:03:13;18.70;;;11.68;;
44508;SDS011;30214;52.246;14.408;2023-01-30T01:05:42;19.02;;;11.75;;
44508;SDS011;30214;52.246;14.408;2023-01-30T01:08:12;21.95;;;11.90;;
44508;SDS011;30214;52.246;14.408;2023-01-30T01:10:40;19.65;;;12.20;;
44508;SDS011;30214;52.246;14.408;2023-01-30T01:13:07;17.70;;;11.52;;
44508;SDS011;30214;52.246;14.408;2023-01-30T01:15:35;20.90;;;12.27;;
44508;SDS011;30214;52.246;14.408;2023-01-30T01:18:03;17.92;;;11.52;;
44508;SDS011;30214;52.246;14.408;2023-01-30T01:20:31;20.38;;;12.27;;
44508;SDS011;30214;52.246;14.408;2023-01-30T01:23:00;21.00;;;12.40;;
44508;SDS011;30214;52.246;14.408;2023-01-30T01:25:27;20.02;;;12.00;;
44508;SDS011;30214;52.246;14.408;2023-01-30T01:27:54;21.90;;;12.15;;
44508;SDS011;30214;52.246;14.408;2023-01-30T01:30:21;20.42;;;12.18;;
44508;SDS011;30214;52.246;14.408;2023-01-30T01:32:49;18.95;;;12.05;;
44508;SDS011;30214;52.246;14.408;2023-01-30T01:35:16;17.52;;;10.82;;
44508;SDS011;30214;52.246;14.408;2023-01-30T01:37:44;20.17;;;12.23;;
44508;SDS011;30214;52.246;14.408;2023-01-30T01:40:15;19.85;;;12.25;;
44508;SDS011;30214;52.246;14.408;2023-01-30T01:43:02;20.42;;;11.95;;
44508;SDS011;30214;52.246;14.408;2023-01-30T01:45:43;19.35;;;11.88;;
44508;SDS011;30214;52.246;14.408;2023-01-30T01:48:17;18.70;;;11.93;;
44508;SDS011;30214;52.246;14.408;2023-01-30T01:50:52;20.55;;;12.65;;
44508;SDS011;30214;52.246;14.408;2023-01-30T01:53:25;20.15;;;12.13;;
44508;SDS011;30214;52.246;14.408;2023-01-30T01:55:59;21.33;;;12.98;;
44508;SDS011;30214;52.246;14.408;2023-01-30T01:58:30;21.25;;;12.32;;
44508;SDS011;30214;52.246;14.408;2023-01-30T02:01:03;20.83;;;13.15;;
44508;SDS011;30214;52.246;14.408;2023-01-30T02:03:31;20.30;;;12.27;;
44508;SDS011;30214;52.246;14.408;2023-01-30T02:06:04;20.90;;;13.00;;
44508;SDS011;30214;52.246;14.408;2023-01-30T02:08:33;18.30;;;12.07;;
44508;SDS011;30214;52.246;14.408;2023-01-30T02:11:05;23.08;;;13.18;;
44508;SDS011;30214;52.246;14.408;2023-01-30T02:13:36;18.88;;;12.80;;
44508;SDS011;30214;52.246;14.408;2023-01-30T02:16:04;19.60;;;12.77;;
44508;SDS011;30214;52.246;14.408;2023-01-30T02:18:33;20.63;;;13.10;;
44508;SDS011;30214;52.246;14.408;2023-01-30T02:21:09;22.35;;;13.35;;
44508;SDS011;30214;52.246;14.408;2023-01-30T02:27:15;19.35;;;12.32;;
44508;SDS011;30214;52.246;14.408;2023-01-30T02:29:54;18.58;;;12.95;;
44508;SDS011;30214;52.246;14.408;2023-01-30T02:33:10;22.17;;;13.60;;
44508;SDS011;30214;52.246;14.408;2023-01-30T02:35:46;20.00;;;12.43;;
44508;SDS011;30214;52.246;14.408;2023-01-30T02:38:29;20.02;;;12.52;;
44508;SDS011;30214;52.246;14.408;2023-01-30T02:41:11;20.27;;;12.95;;
44508;SDS011;30214;52.246;14.408;2023-01-30T02:43:51;18.35;;;11.95;;
44508;SDS011;30214;52.246;14.408;2023-01-30T02:46:36;20.08;;;12.80;;
44508;SDS011;30214;52.246;14.408;2023-01-30T02:49:12;19.30;;;12.35;;
44508;SDS011;30214;52.246;14.408;2023-01-30T02:51:47;22.90;;;12.82;;
44508;SDS011;30214;52.246;14.408;2023-01-30T02:54:16;19.10;;;12.52;;
44508;SDS011;30214;52.246;14.408;2023-01-30T02:56:43;19.80;;;13.32;;
44508;SDS011;30214;52.246;14.408;2023-01-30T02:59:12;18.50;;;12.45;;
44508;SDS011;30214;52.246;14.408;2023-01-30T03:02:03;19.35;;;12.40;;
44508;SDS011;30214;52.246;14.408;2023-01-30T03:04:59;19.90;;;13.27;;
44508;SDS011;30214;52.246;14.408;2023-01-30T03:07:54;20.00;;;13.35;;
44508;SDS011;30214;52.246;14.408;2023-01-30T03:10:32;22.13;;;13.48;;
44508;SDS011;30214;52.246;14.408;2023-01-30T03:13:08;20.15;;;12.75;;
44508;SDS011;30214;52.246;14.408;2023-01-30T03:15:42;23.25;;;14.23;;
44508;SDS011;30214;52.246;14.408;2023-01-30T03:20:44;21.88;;;12.57;;
44508;SDS011;30214;52.246;14.408;2023-01-30T03:23:11;25.20;;;14.38;;
44508;SDS011;30214;52.246;14.408;2023-01-30T03:25:39;20.23;;;12.85;;
44508;SDS011;30214;52.246;14.408;2023-01-30T03:28:09;21.45;;;14.00;;
44508;SDS011;30214;52.246;14.408;2023-01-30T03:30:38;20.80;;;13.82;;
44508;SDS011;30214;52.246;14.408;2023-01-30T03:33:08;23.08;;;13.70;;
44508;SDS011;30214;52.246;14.408;2023-01-30T03:35:38;21.48;;;13.23;;
44508;SDS011;30214;52.246;14.408;2023-01-30T03:38:05;23.25;;;14.70;;
44508;SDS011;30214;52.246;14.408;2023-01-30T03:40:33;22.67;;;13.07;;
44508;SDS011;30214;52.246;14.408;2023-01-30T03:43:01;22.67;;;13.55;;
44508;SDS011;30214;52.246;14.408;2023-01-30T03:45:28;23.20;;;13.63;;
44508;SDS011;30214;52.246;14.408;2023-01-30T03:47:55;22.35;;;13.93;;
44508;SDS011;30214;52.246;14.408;2023-01-30T03:50:22;23.33;;;14.60;;
44508;SDS011;30214;52.246;14.408;2023-01-30T03:52:51;20.73;;;13.30;;
44508;SDS011;30214;52.246;14.408;2023-01-30T03:55:20;21.30;;;13.30;;
44508;SDS011;30214;52.246;14.408;2023-01-30T03:57:47;24.67;;;14.27;;
44508;SDS011;30214;52.246;14.408;2023-01-30T04:00:17;20.75;;;13.48;;
44508;SDS011;30214;52.246;14.408;2023-01-30T04:02:48;22.05;;;14.55;;
44508;SDS011;30214;52.246;14.408;2023-01-30T04:05:16;22.70;;;13.57;;
44508;SDS011;30214;52.246;14.408;2023-01-30T04:07:49;24.80;;;14.00;;
44508;SDS011;30214;52.246;14.408;2023-01-30T04:10:17;21.25;;;13.98;;
44508;SDS011;30214;52.246;14.408;2023-01-30T04:12:45;21.35;;;14.07;;
44508;SDS011;30214;52.246;14.408;2023-01-30T04:15:12;23.10;;;13.82;;
44508;SDS011;30214;52.246;14.408;2023-01-30T04:18:02;23.52;;;14.10;;
44508;SDS011;30214;52.246;14.408;2023-01-30T04:20:29;19.10;;;13.07;;
44508;SDS011;30214;52.246;14.408;2023-01-30T04:22:58;21.33;;;13.18;;
44508;SDS011;30214;52.246;14.408;2023-01-30T04:25:26;22.92;;;12.95;;
44508;SDS011;30214;52.246;14.408;2023-01-30T04:27:54;21.45;;;14.10;;
44508;SDS011;30214;52.246;14.408;2023-01-30T04:30:34;22.90;;;13.55;;
44508;SDS011;30214;52.246;14.408;2023-01-30T04:33:19;21.75;;;13.15;;
44508;SDS011;30214;52.246;14.408;2023-01-30T04:35:50;20.20;;;12.85;;
44508;SDS011;30214;52.246;14.408;2023-01-30T04:38:19;22.70;;;13.35;;
44508;SDS011;30214;52.246;14.408;2023-01-30T04:40:47;21.80;;;13.52;;
44508;SDS011;30214;52.246;14.408;2023-01-30T04:43:15;21.88;;;13.50;;
44508;SDS011;30214;52.246;14.408;2023-01-30T04:46:05;20.80;;;13.70;;
44508;SDS011;30214;52.246;14.408;2023-01-30T04:48:32;24.02;;;12.70;;
44508;SDS011;30214;52.246;14.408;2023-01-30T04:51:01;23.20;;;15.10;;
44508;SDS011;30214;52.246;14.408;2023-01-30T04:53:30;20.02;;;13.57;;
44508;SDS011;30214;52.246;14.408;2023-01-30T04:55:57;23.67;;;13.80;;
44508;SDS011;30214;52.246;14.408;2023-01-30T04:58:24;19.33;;;12.70;;
44508;SDS011;30214;52.246;14.408;2023-01-30T05:00:52;22.40;;;14.27;;
44508;SDS011;30214;52.246;14.408;2023-01-30T05:03:19;21.17;;;13.55;;
44508;SDS011;30214;52.246;14.408;2023-01-30T05:05:46;22.67;;;14.23;;
44508;SDS011;30214;52.246;14.408;2023-01-30T05:08:14;21.88;;;13.98;;
44508;SDS011;30214;52.246;14.408;2023-01-30T05:10:42;21.48;;;13.43;;
44508;SDS011;30214;52.246;14.408;2023-01-30T05:13:09;20.90;;;13.50;;
44508;SDS011;30214;52.246;14.408;2023-01-30T05:15:37;21.40;;;14.38;;
44508;SDS011;30214;52.246;14.408;2023-01-30T05:18:05;19.60;;;13.55;;
44508;SDS011;30214;52.246;14.408;2023-01-30T05:20:32;20.25;;;13.25;;
44508;SDS011;30214;52.246;14.408;2023-01-30T05:22:59;21.58;;;13.18;;
44508;SDS011;30214;52.246;14.408;2023-01-30T05:25:26;20.10;;;13.25;;
44508;SDS011;30214;52.246;14.408;2023-01-30T05:27:54;22.02;;;13.98;;
44508;SDS011;30214;52.246;14.408;2023-01-30T05:30:21;21.60;;;13.20;;
44508;SDS011;30214;52.246;14.408;2023-01-30T05:32:48;20.52;;;12.38;;
44508;SDS011;30214;52.246;14.408;2023-01-30T05:35:15;19.95;;;13.32;;
44508;SDS011;30214;52.246;14.408;2023-01-30T05:37:42;21.58;;;13.63;;
44508;SDS011;30214;52.246;14.408;2023-01-30T05:40:10;20.75;;;13.05;;
44508;SDS011;30214;52.246;14.408;2023-01-30T05:42:38;20.42;;;13.63;;
44508;SDS011;30214;52.246;14.408;2023-01-30T05:45:07;21.38;;;13.32;;
44508;SDS011;30214;52.246;14.408;2023-01-30T05:47:35;20.83;;;13.73;;
44508;SDS011;30214;52.246;14.408;2023-01-30T05:50:02;24.75;;;13.23;;
44508;SDS011;30214;52.246;14.408;2023-01-30T05:52:30;24.60;;;13.80;;
44508;SDS011;30214;52.246;14.408;2023-01-30T05:54:58;24.15;;;14.15;;
44508;SDS011;30214;52.246;14.408;2023-01-30T05:57:25;24.27;;;14.75;;
44508;SDS011;30214;52.246;14.408;2023-01-30T05:59:52;27.38;;;16.00;;
44508;SDS011;30214;52.246;14.408;2023-01-30T06:02:20;25.10;;;15.75;;
44508;SDS011;30214;52.246;14.408;2023-01-30T06:04:47;27.02;;;14.82;;
44508;SDS011;30214;52.246;14.408;2023-01-30T06:07:14;22.52;;;15.15;;
44508;SDS011;30214;52.246;14.408;2023-01-30T06:09:41;23.38;;;15.00;;
44508;SDS011;30214;52.246;14.408;2023-01-30T06:12:08;25.02;;;14.75;;
44508;SDS011;30214;52.246;14.408;2023-01-30T06:14:35;25.17;;;15.10;;
44508;SDS011;30214;52.246;14.408;2023-01-30T06:17:02;24.00;;;15.07;;
44508;SDS011;30214;52.246;14.408;2023-01-30T06:19:31;22.45;;;15.18;;
44508;SDS011;30214;52.246;14.408;2023-01-30T06:21:58;24.23;;;15.48;;
44508;SDS011;30214;52.246;14.408;2023-01-30T06:24:25;27.65;;;14.88;;
44508;SDS011;30214;52.246;14.408;2023-01-30T06:26:52;22.95;;;14.43;;
44508;SDS011;30214;52.246;14.408;2023-01-30T06:29:19;23.75;;;14.93;;
44508;SDS011;30214;52.246;14.408;2023-01-30T06:31:46;27.48;;;16.10;;
44508;SDS011;30214;52.246;14.408;2023-01-30T06:34:13;26.70;;;15.80;;
44508;SDS011;30214;52.246;14.408;2023-01-30T06:36:41;27.48;;;15.15;;
44508;SDS011;30214;52.246;14.408;2023-01-30T06:39:09;24.10;;;15.43;;
44508;SDS011;30214;52.246;14.408;2023-01-30T06:41:36;26.23;;;15.73;;
44508;SDS011;30214;52.246;14.408;2023-01-30T06:44:03;32.15;;;16.08;;
44508;SDS011;30214;52.246;14.408;2023-01-30T06:46:30;27.50;;;14.82;;
44508;SDS011;30214;52.246;14.408;2023-01-30T06:48:57;26.55;;;16.80;;
44508;SDS011;30214;52.246;14.408;2023-01-30T06:51:24;26.98;;;15.60;;
44508;SDS011;30214;52.246;14.408;2023-01-30T06:53:53;26.42;;;16.13;;
44508;SDS011;30214;52.246;14.408;2023-01-30T06:56:20;25.58;;;15.75;;
44508;SDS011;30214;52.246;14.408;2023-01-30T06:58:47;25.25;;;15.15;;
44508;SDS011;30214;52.246;14.408;2023-01-30T07:01:15;27.05;;;16.20;;
44508;SDS011;30214;52.246;14.408;2023-01-30T07:03:43;27.48;;;15.77;;
44508;SDS011;30214;52.246;14.408;2023-01-30T07:06:10;25.50;;;15.93;;
44508;SDS011;30214;52.246;14.408;2023-01-30T07:08:37;28.35;;;16.10;;
44508;SDS011;30214;52.246;14.408;2023-01-30T07:11:06;27.33;;;16.02;;
44508;SDS011;30214;52.246;14.408;2023-01-30T07:13:33;25.63;;;15.88;;
44508;SDS011;30214;52.246;14.408;2023-01-30T07:16:00;26.13;;;16.42;;
44508;SDS011;30214;52.246;14.408;2023-01-30T07:18:27;30.33;;;16.58;;
44508;SDS011;30214;52.246;14.408;2023-01-30T07:20:54;28.90;;;17.23;;
44508;SDS011;30214;52.246;14.408;2023-01-30T07:23:21;26.95;;;15.55;;
44508;SDS011;30214;52.246;14.408;2023-01-30T07:25:48;29.05;;;16.45;;
44508;SDS011;30214;52.246;14.408;2023-01-30T07:28:17;29.25;;;16.00;;
44508;SDS011;30214;52.246;14.408;2023-01-30T07:30:44;26.80;;;15.73;;
44508;SDS011;30214;52.246;14.408;2023-01-30T07:33:11;27.83;;;16.60;;
44508;SDS011;30214;52.246;14.408;2023-01-30T07:35:38;26.95;;;15.52;;
44508;SDS011;30214;52.246;14.408;2023-01-30T07:38:05;26.25;;;15.40;;
44508;SDS011;30214;52.246;14.408;2023-01-30T07:40:32;28.02;;;15.68;;
44508;SDS011;30214;52.246;14.408;2023-01-30T07:43:00;27.05;;;15.38;;
44508;SDS011;30214;52.246;14.408;2023-01-30T07:45:33;26.38;;;15.05;;
44508;SDS011;30214;52.246;14.408;2023-01-30T07:48:02;23.30;;;14.00;;
44508;SDS011;30214;52.246;14.408;2023-01-30T07:50:29;21.75;;;13.60;;
44508;SDS011;30214;52.246;14.408;2023-01-30T07:52:56;21.42;;;14.13;;
44508;SDS011;30214;52.246;14.408;2023-01-30T07:55:23;20.70;;;12.43;;
44508;SDS011;30214;52.246;14.408;2023-01-30T07:57:50;19.45;;;12.07;;
44508;SDS011;30214;52.246;14.408;2023-01-30T08:00:17;23.15;;;12.55;;
44508;SDS011;30214;52.246;14.408;2023-01-30T08:02:46;19.63;;;11.88;;
44508;SDS011;30214;52.246;14.408;2023-01-30T08:05:13;22.05;;;13.10;;
44508;SDS011;30214;52.246;14.408;2023-01-30T08:07:40;19.45;;;11.63;;
44508;SDS011;30214;52.246;14.408;2023-01-30T08:10:08;17.23;;;11.20;;
44508;SDS011;30214;52.246;14.408;2023-01-30T08:12:37;18.70;;;12.07;;
44508;SDS011;30214;52.246;14.408;2023-01-30T08:15:05;18.33;;;11.55;;
44508;SDS011;30214;52.246;14.408;2023-01-30T08:17:33;19.80;;;11.55;;
44508;SDS011;30214;52.246;14.408;2023-01-30T08:20:02;18.42;;;12.05;;
44508;SDS011;30214;52.246;14.408;2023-01-30T08:22:30;18.02;;;11.10;;
44508;SDS011;30214;52.246;14.408;2023-01-30T08:24:57;18.77;;;11.75;;
44508;SDS011;30214;52.246;14.408;2023-01-30T08:27:25;17.48;;;11.02;;
44508;SDS011;30214;52.246;14.408;2023-01-30T08:29:52;20.75;;;11.70;;
44508;SDS011;30214;52.246;14.408;2023-01-30T08:32:19;16.55;;;11.63;;
44508;SDS011;30214;52.246;14.408;2023-01-30T08:34:46;19.33;;;12.35;;
44508;SDS011;30214;52.246;14.408;2023-01-30T08:37:15;21.13;;;13.90;;
44508;SDS011;30214;52.246;14.408;2023-01-30T08:39:42;20.27;;;11.80;;
44508;SDS011;30214;52.246;14.408;2023-01-30T08:42:09;18.67;;;12.45;;
44508;SDS011;30214;52.246;14.408;2023-01-30T08:44:36;15.32;;;10.23;;
44508;SDS011;30214;52.246;14.408;2023-01-30T08:47:03;17.20;;;10.63;;
44508;SDS011;30214;52.246;14.408;2023-01-30T08:49:30;20.00;;;11.20;;
44508;SDS011;30214;52.246;14.408;2023-01-30T08:51:57;18.00;;;11.30;;
44508;SDS011;30214;52.246;14.408;2023-01-30T08:54:25;17.63;;;11.85;;
44508;SDS011;30214;52.246;14.408;2023-01-30T08:56:52;18.10;;;11.07;;
44508;SDS011;30214;52.246;14.408;2023-01-30T08:59:20;15.68;;;10.07;;
44508;SDS011;30214;52.246;14.408;2023-01-30T09:01:47;15.90;;;10.68;;
44508;SDS011;30214;52.246;14.408;2023-01-30T09:04:14;19.65;;;13.35;;
44508;SDS011;30214;52.246;14.408;2023-01-30T09:06:41;16.25;;;9.95;;
44508;SDS011;30214;52.246;14.408;2023-01-30T09:09:08;14.85;;;9.80;;
44508;SDS011;30214;52.246;14.408;2023-01-30T09:11:37;17.33;;;10.43;;
44508;SDS011;30214;52.246;14.408;2023-01-30T09:14:05;17.77;;;11.00;;
44508;SDS011;30214;52.246;14.408;2023-01-30T09:16:32;17.45;;;10.55;;
44508;SDS011;30214;52.246;14.408;2023-01-30T09:18:59;16.08;;;10.15;;
44508;SDS011;30214;52.246;14.408;2023-01-30T09:21:26;17.70;;;11.10;;
44508;SDS011;30214;52.246;14.408;2023-01-30T09:23:54;17.55;;;10.10;;
44508;SDS011;30214;52.246;14.408;2023-01-30T09:26:21;13.88;;;9.40;;
44508;SDS011;30214;52.246;14.408;2023-01-30T09:28:50;14.52;;;9.57;;
44508;SDS011;30214;52.246;14.408;2023-01-30T09:31:17;16.55;;;10.50;;
44508;SDS011;30214;52.246;14.408;2023-01-30T09:36:19;18.27;;;12.57;;
44508;SDS011;30214;52.246;14.408;2023-01-30T09:38:47;24.98;;;15.48;;
44508;SDS011;30214;52.246;14.408;2023-01-30T09:41:26;16.05;;;11.18;;
44508;SDS011;30214;52.246;14.408;2023-01-30T09:44:16;14.75;;;9.50;;
44508;SDS011;30214;52.246;14.408;2023-01-30T09:47:07;14.88;;;8.85;;
44508;SDS011;30214;52.246;14.408;2023-01-30T09:49:40;13.50;;;8.35;;
44508;SDS011;30214;52.246;14.408;2023-01-30T09:52:22;16.00;;;8.80;;
44508;SDS011;30214;52.246;14.408;2023-01-30T09:54:59;13.10;;;8.55;;
44508;SDS011;30214;52.246;14.408;2023-01-30T09:57:41;12.15;;;7.90;;
44508;SDS011;30214;52.246;14.408;2023-01-30T10:00:12;13.07;;;7.28;;
44508;SDS011;30214;52.246;14.408;2023-01-30T10:02:49;12.25;;;8.05;;
44508;SDS011;30214;52.246;14.408;2023-01-30T10:05:29;10.57;;;6.40;;
44508;SDS011;30214;52.246;14.408;2023-01-30T10:08:16;10.43;;;6.53;;
44508;SDS011;30214;52.246;14.408;2023-01-30T10:11:09;12.48;;;6.45;;
44508;SDS011;30214;52.246;14.408;2023-01-30T10:13:51;10.70;;;6.63;;
44508;SDS011;30214;52.246;14.408;2023-01-30T10:16:53;12.05;;;7.50;;
44508;SDS011;30214;52.246;14.408;2023-01-30T10:19:43;20.45;;;14.68;;
44508;SDS011;30214;52.246;14.408;2023-01-30T10:22:26;10.18;;;6.88;;
44508;SDS011;30214;52.246;14.408;2023-01-30T10:25:11;11.68;;;6.60;;
44508;SDS011;30214;52.246;14.408;2023-01-30T10:27:52;10.50;;;7.40;;
44508;SDS011;30214;52.246;14.408;2023-01-30T10:30:23;9.68;;;5.70;;
44508;SDS011;30214;52.246;14.408;2023-01-30T10:32:52;11.07;;;5.88;;
44508;SDS011;30214;52.246;14.408;2023-01-30T10:35:28;9.98;;;6.22;;
44508;SDS011;30214;52.246;14.408;2023-01-30T10:40:34;9.45;;;5.97;;
44508;SDS011;30214;52.246;14.408;2023-01-30T10:43:09;12.27;;;6.28;;
44508;SDS011;30214;52.246;14.408;2023-01-30T10:45:45;11.18;;;5.65;;
44508;SDS011;30214;52.246;14.408;2023-01-30T10:48:27;10.07;;;5.80;;
44508;SDS011;30214;52.246;14.408;2023-01-30T10:51:17;9.93;;;5.20;;
44508;SDS011;30214;52.246;14.408;2023-01-30T10:53:55;10.27;;;5.95;;
44508;SDS011;30214;52.246;14.408;2023-01-30T10:56:29;13.80;;;6.65;;
44508;SDS011;30214;52.246;14.408;2023-01-30T10:59:21;11.43;;;5.28;;
44508;SDS011;30214;52.246;14.408;2023-01-30T11:01:54;12.30;;;5.05;;
44508;SDS011;30214;52.246;14.408;2023-01-30T11:04:39;13.77;;;5.57;;
44508;SDS011;30214;52.246;14.408;2023-01-30T11:07:13;7.50;;;4.22;;
44508;SDS011;30214;52.246;14.408;2023-01-30T11:09:41;12.18;;;4.22;;
44508;SDS011;30214;52.246;14.408;2023-01-30T11:12:10;10.40;;;4.22;;
44508;SDS011;30214;52.246;14.408;2023-01-30T11:14:54;10.95;;;4.13;;
44508;SDS011;30214;52.246;14.408;2023-01-30T11:17:31;12.13;;;4.25;;
44508;SDS011;30214;52.246;14.408;2023-01-30T11:20:04;9.73;;;4.38;;
44508;SDS011;30214;52.246;14.408;2023-01-30T11:22:43;9.57;;;3.45;;
44508;SDS011;30214;52.246;14.408;2023-01-30T11:25:14;9.98;;;3.50;;
44508;SDS011;30214;52.246;14.408;2023-01-30T11:27:50;11.43;;;3.88;;
44508;SDS011;30214;52.246;14.408;2023-01-30T11:30:20;11.32;;;4.30;;
44508;SDS011;30214;52.246;14.408;2023-01-30T11:32:53;12.30;;;3.25;;
44508;SDS011;30214;52.246;14.408;2023-01-30T11:35:39;10.30;;;2.78;;
44508;SDS011;30214;52.246;14.408;2023-01-30T11:38:17;13.90;;;2.92;;
44508;SDS011;30214;52.246;14.408;2023-01-30T11:40:49;13.40;;;3.47;;
44508;SDS011;30214;52.246;14.408;2023-01-30T11:43:27;13.07;;;3.33;;
44508;SDS011;30214;52.246;14.408;2023-01-30T11:45:55;11.05;;;2.10;;
44508;SDS011;30214;52.246;14.408;2023-01-30T11:48:25;10.40;;;1.80;;
44508;SDS011;30214;52.246;14.408;2023-01-30T11:50:58;8.38;;;2.30;;
44508;SDS011;30214;52.246;14.408;2023-01-30T11:53:32;11.75;;;2.47;;
44508;SDS011;30214;52.246;14.408;2023-01-30T11:56:04;16.50;;;2.90;;
44508;SDS011;30214;52.246;14.408;2023-01-30T11:58:37;16.02;;;2.05;;
44508;SDS011;30214;52.246;14.408;2023-01-30T12:01:07;12.52;;;2.15;;
44508;SDS011;30214;52.246;14.408;2023-01-30T12:03:37;8.20;;;1.80;;
44508;SDS011;30214;52.246;14.408;2023-01-30T12:06:14;11.07;;;2.28;;
44508;SDS011;30214;52.246;14.408;2023-01-30T12:08:51;16.60;;;2.67;;
44508;SDS011;30214;52.246;14.408;2023-01-30T12:11:24;11.95;;;2.35;;
44508;SDS011;30214;52.246;14.408;2023-01-30T12:16:52;11.52;;;2.03;;
44508;SDS011;30214;52.246;14.408;2023-01-30T12:19:27;12.02;;;2.15;;
44508;SDS011;30214;52.246;14.408;2023-01-30T12:22:10;16.85;;;4.03;;
44508;SDS011;30214;52.246;14.408;2023-01-30T12:24:48;17.23;;;2.85;;
44508;SDS011;30214;52.246;14.408;2023-01-30T12:27:24;9.55;;;2.30;;
44508;SDS011;30214;52.246;14.408;2023-01-30T12:30:18;8.75;;;1.73;;
44508;SDS011;30214;52.246;14.408;2023-01-30T12:32:55;10.07;;;2.33;;
44508;SDS011;30214;52.246;14.408;2023-01-30T12:35:28;11.52;;;1.90;;
44508;SDS011;30214;52.246;14.408;2023-01-30T12:38:12;11.82;;;2.53;;
44508;SDS011;30214;52.246;14.408;2023-01-30T12:40:54;14.30;;;3.03;;
44508;SDS011;30214;52.246;14.408;2023-01-30T12:43:43;9.35;;;2.50;;
44508;SDS011;30214;52.246;14.408;2023-01-30T12:46:27;13.82;;;2.28;;
44508;SDS011;30214;52.246;14.408;2023-01-30T12:49:19;18.52;;;3.17;;
44508;SDS011;30214;52.246;14.408;2023-01-30T12:52:07;16.20;;;2.60;;
44508;SDS011;30214;52.246;14.408;2023-01-30T12:54:56;14.32;;;2.67;;
44508;SDS011;30214;52.246;14.408;2023-01-30T12:57:31;15.38;;;2.60;;
44508;SDS011;30214;52.246;14.408;2023-01-30T13:00:05;12.10;;;1.95;;
44508;SDS011;30214;52.246;14.408;2023-01-30T13:02:51;13.07;;;3.10;;
44508;SDS011;30214;52.246;14.408;2023-01-30T13:05:39;10.27;;;2.20;;
44508;SDS011;30214;52.246;14.408;2023-01-30T13:08:16;12.55;;;2.70;;
44508;SDS011;30214;52.246;14.408;2023-01-30T13:11:14;16.08;;;2.33;;
44508;SDS011;30214;52.246;14.408;2023-01-30T13:13:57;15.82;;;2.83;;
44508;SDS011;30214;52.246;14.408;2023-01-30T13:16:34;13.43;;;2.42;;
44508;SDS011;30214;52.246;14.408;2023-01-30T13:19:10;9.75;;;1.80;;
44508;SDS011;30214;52.246;14.408;2023-01-30T13:21:43;12.27;;;2.40;;
44508;SDS011;30214;52.246;14.408;2023-01-30T13:24:20;16.85;;;2.65;;
44508;SDS011;30214;52.246;14.408;2023-01-30T13:27:06;13.65;;;2.50;;
44508;SDS011;30214;52.246;14.408;2023-01-30T13:29:41;18.95;;;5.57;;
44508;SDS011;30214;52.246;14.408;2023-01-30T13:32:12;20.42;;;7.82;;
44508;SDS011;30214;52.246;14.408;2023-01-30T13:34:43;15.07;;;4.10;;
44508;SDS011;30214;52.246;14.408;2023-01-30T13:37:14;15.18;;;4.70;;
44508;SDS011;30214;52.246;14.408;2023-01-30T13:39:43;13.75;;;3.00;;
44508;SDS011;30214;52.246;14.408;2023-01-30T13:42:19;16.15;;;2.45;;
44508;SDS011;30214;52.246;14.408;2023-01-30T13:44:55;18.92;;;3.20;;
44508;SDS011;30214;52.246;14.408;2023-01-30T13:47:26;13.88;;;2.80;;
44508;SDS011;30214;52.246;14.408;2023-01-30T13:50:16;11.50;;;2.67;;
44508;SDS011;30214;52.246;14.408;2023-01-30T13:52:58;15.68;;;2.70;;
44508;SDS011;30214;52.246;14.408;2023-01-30T13:55:32;13.75;;;3.30;;
44508;SDS011;30214;52.246;14.408;2023-01-30T13:58:10;18.00;;;3.05;;
44508;SDS011;30214;52.246;14.408;2023-01-30T14:00:52;12.52;;;2.55;;
44508;SDS011;30214;52.246;14.408;2023-01-30T14:03:25;10.43;;;2.00;;
44508;SDS011;30214;52.246;14.408;2023-01-30T14:05:59;12.50;;;2.50;;
44508;SDS011;30214;52.246;14.408;2023-01-30T14:08:33;10.38;;;2.53;;
44508;SDS011;30214;52.246;14.408;2023-01-30T14:14:00;16.17;;;2.75;;
44508;SDS011;30214;52.246;14.408;2023-01-30T14:16:45;15.00;;;1.98;;
44508;SDS011;30214;52.246;14.408;2023-01-30T14:22:20;19.23;;;2.60;;
44508;SDS011;30214;52.246;14.408;2023-01-30T14:40:38;12.35;;;1.98;;
44508;SDS011;30214;52.246;14.408;2023-01-30T14:43:48;14.32;;;2.08;;
44508;SDS011;30214;52.246;14.408;2023-01-30T14:49:23;10.48;;;2.10;;
44508;SDS011;30214;52.246;14.408;2023-01-30T14:51:56;9.07;;;2.08;;
44508;SDS011;30214;52.246;14.408;2023-01-30T14:54:26;9.38;;;1.90;;
44508;SDS011;30214;52.246;14.408;2023-01-30T14:59:28;10.35;;;1.90;;
44508;SDS011;30214;52.246;14.408;2023-01-30T15:02:08;9.10;;;2.15;;
44508;SDS011;30214;52.246;14.408;2023-01-30T15:04:57;10.90;;;2.25;;
44508;SDS011;30214;52.246;14.408;2023-01-30T15:07:35;13.13;;;1.80;;
44508;SDS011;30214;52.246;14.408;2023-01-30T15:10:12;10.20;;;1.60;;
44508;SDS011;30214;52.246;14.408;2023-01-30T15:13:11;12.18;;;1.70;;
44508;SDS011;30214;52.246;14.408;2023-01-30T15:15:59;8.60;;;2.03;;
44508;SDS011;30214;52.246;14.408;2023-01-30T15:18:45;12.93;;;3.85;;
44508;SDS011;30214;52.246;14.408;2023-01-30T15:21:45;7.50;;;2.25;;
44508;SDS011;30214;52.246;14.408;2023-01-30T15:24:30;11.52;;;2.50;;
44508;SDS011;30214;52.246;14.408;2023-01-30T15:27:37;11.48;;;2.05;;